Aviation Digital Data Service (ADDS)

Output produced by TAFs form (1643 UTC 25 October 2014)
found at http://aviationweather.gov/adds/tafs/
 
KCNM 251134Z 2512/2612 22005KT P6SM SKC 
     FM251800 19008KT P6SM SKC